createdAt,value
2023-05-12T00:01:51.810Z,3.83
2023-05-12T00:04:17.899Z,3.13
2023-05-12T00:06:44.053Z,3.30
2023-05-12T00:09:10.211Z,2.80
2023-05-12T00:11:37.281Z,2.10
2023-05-12T00:14:03.400Z,2.50
2023-05-12T00:16:29.517Z,2.00
2023-05-12T00:18:55.812Z,1.90
2023-05-12T00:21:21.927Z,2.17
2023-05-12T00:23:48.053Z,1.90
2023-05-12T00:26:14.162Z,2.33
2023-05-12T00:28:40.237Z,2.10
2023-05-12T00:31:06.379Z,1.93
2023-05-12T00:33:32.520Z,1.90
2023-05-12T00:36:00.466Z,2.10
2023-05-12T00:38:27.226Z,2.20
2023-05-12T00:40:53.305Z,2.10
2023-05-12T00:43:19.380Z,2.30
2023-05-12T00:45:45.575Z,2.07
2023-05-12T00:48:11.835Z,2.47
2023-05-12T00:50:37.999Z,2.33
2023-05-12T00:53:04.160Z,2.70
2023-05-12T00:55:30.733Z,2.73
2023-05-12T00:57:56.817Z,2.93
2023-05-12T01:00:22.929Z,2.87
2023-05-12T01:02:49.076Z,2.60
2023-05-12T01:05:15.280Z,2.90
2023-05-12T01:07:41.892Z,2.90
2023-05-12T01:10:21.058Z,2.40
2023-05-12T01:12:47.674Z,3.50
2023-05-12T01:15:13.834Z,2.97
2023-05-12T01:17:44.891Z,2.57
2023-05-12T01:20:12.029Z,2.63
2023-05-12T01:22:38.690Z,3.10
2023-05-12T01:25:07.425Z,2.40
2023-05-12T01:27:33.950Z,2.57
2023-05-12T01:30:01.601Z,2.57
2023-05-12T01:32:28.764Z,2.80
2023-05-12T01:34:54.948Z,2.73
2023-05-12T01:37:21.284Z,3.03
2023-05-12T01:39:47.431Z,2.93
2023-05-12T01:42:13.504Z,2.60
2023-05-12T01:44:39.603Z,3.10
2023-05-12T01:47:09.113Z,2.93
2023-05-12T01:49:35.317Z,2.90
2023-05-12T01:52:01.393Z,2.67
2023-05-12T01:54:27.541Z,2.93
2023-05-12T01:56:53.592Z,3.43
2023-05-12T01:59:19.732Z,3.50
2023-05-12T02:01:45.875Z,2.87
2023-05-12T02:04:12.094Z,2.20
2023-05-12T02:06:38.323Z,2.90
2023-05-12T02:09:04.466Z,2.70
2023-05-12T02:11:30.523Z,2.67
2023-05-12T02:13:56.653Z,2.73
2023-05-12T02:16:22.846Z,2.77
2023-05-12T02:18:48.992Z,3.03
2023-05-12T02:21:15.331Z,3.10
2023-05-12T02:23:41.406Z,3.00
2023-05-12T02:26:07.619Z,3.20
2023-05-12T02:28:33.708Z,3.00
2023-05-12T02:30:59.840Z,2.90
2023-05-12T02:33:26.172Z,3.17
2023-05-12T02:35:52.258Z,2.90
2023-05-12T02:38:18.442Z,2.60
2023-05-12T02:40:45.802Z,3.13
2023-05-12T02:43:11.865Z,2.97
2023-05-12T02:45:38.510Z,3.10
2023-05-12T02:48:05.139Z,2.87
2023-05-12T02:50:31.368Z,3.23
2023-05-12T02:52:57.456Z,3.10
2023-05-12T02:55:23.654Z,2.90
2023-05-12T02:57:49.728Z,3.70
2023-05-12T03:00:15.952Z,2.80
2023-05-12T03:02:42.386Z,3.03
2023-05-12T03:05:08.825Z,2.90
2023-05-12T03:07:35.118Z,2.73
2023-05-12T03:10:01.338Z,2.83
2023-05-12T03:12:30.757Z,2.63
2023-05-12T03:14:57.026Z,2.53
2023-05-12T03:17:23.309Z,2.70
2023-05-12T03:19:49.397Z,2.33
2023-05-12T03:22:15.520Z,3.40
2023-05-12T03:24:41.637Z,3.90
2023-05-12T03:27:07.760Z,3.60
2023-05-12T03:29:33.855Z,3.60
2023-05-12T03:32:00.017Z,3.23
2023-05-12T03:34:26.084Z,3.40
2023-05-12T03:36:52.155Z,3.37
2023-05-12T03:39:18.221Z,3.13
2023-05-12T03:41:44.314Z,3.67
2023-05-12T03:44:11.568Z,3.30
2023-05-12T03:46:37.828Z,3.30
2023-05-12T03:49:04.016Z,3.50
2023-05-12T03:51:30.499Z,3.23
2023-05-12T03:53:56.585Z,3.23
2023-05-12T03:56:22.713Z,2.87
2023-05-12T03:58:48.830Z,3.17
2023-05-12T04:01:15.152Z,2.70
2023-05-12T04:03:41.326Z,3.50
2023-05-12T04:06:07.697Z,3.47
2023-05-12T04:08:33.909Z,3.43
2023-05-12T04:11:01.626Z,4.53
2023-05-12T04:13:28.687Z,4.40
2023-05-12T04:15:58.552Z,3.57
2023-05-12T04:18:28.212Z,3.70
2023-05-12T04:20:54.699Z,3.63
2023-05-12T04:23:20.913Z,3.43
2023-05-12T04:25:47.042Z,2.90
2023-05-12T04:28:13.254Z,3.03
2023-05-12T04:30:40.079Z,3.33
2023-05-12T04:33:06.274Z,3.20
2023-05-12T04:35:32.409Z,3.30
2023-05-12T04:38:00.584Z,3.23
2023-05-12T04:40:26.927Z,3.13
2023-05-12T04:42:53.162Z,2.70
2023-05-12T04:45:19.512Z,3.30
2023-05-12T04:47:46.082Z,3.10
2023-05-12T04:50:12.681Z,3.37
2023-05-12T04:52:38.817Z,2.83
2023-05-12T04:55:05.847Z,3.30
2023-05-12T04:57:31.938Z,3.00
2023-05-12T04:59:58.710Z,3.17
2023-05-12T05:02:27.890Z,3.70
2023-05-12T05:04:54.072Z,3.50
2023-05-12T05:07:20.230Z,3.07
2023-05-12T05:09:46.280Z,2.73
2023-05-12T05:12:12.412Z,3.10
2023-05-12T05:14:38.548Z,3.20
2023-05-12T05:17:07.065Z,2.60
2023-05-12T05:19:46.158Z,3.10
2023-05-12T05:22:19.259Z,3.07
2023-05-12T05:24:45.345Z,3.63
2023-05-12T05:27:11.935Z,3.60
2023-05-12T05:29:37.992Z,3.57
2023-05-12T05:32:04.545Z,3.60
2023-05-12T05:34:31.121Z,3.90
2023-05-12T05:36:57.230Z,2.80
2023-05-12T05:39:23.382Z,3.30
2023-05-12T05:41:49.447Z,3.50
2023-05-12T05:44:15.515Z,3.60
2023-05-12T05:46:41.634Z,2.87
2023-05-12T05:49:07.821Z,3.27
2023-05-12T05:51:33.914Z,3.17
2023-05-12T05:53:59.963Z,3.37
2023-05-12T05:56:26.328Z,2.53
2023-05-12T05:58:52.556Z,3.10
2023-05-12T06:01:18.648Z,3.00
2023-05-12T06:03:44.831Z,2.97
2023-05-12T06:06:11.078Z,3.50
2023-05-12T06:08:37.168Z,2.87
2023-05-12T06:11:03.470Z,3.10
2023-05-12T06:13:29.525Z,3.00
2023-05-12T06:15:55.612Z,3.23
2023-05-12T06:18:22.084Z,3.23
2023-05-12T06:20:48.314Z,2.90
2023-05-12T06:23:14.393Z,2.67
2023-05-12T06:25:40.633Z,3.30
2023-05-12T06:28:07.268Z,2.90
2023-05-12T06:30:34.126Z,2.77
2023-05-12T06:33:00.530Z,3.33
2023-05-12T06:35:26.907Z,3.10
2023-05-12T06:37:53.034Z,3.30
2023-05-12T06:40:19.198Z,3.17
2023-05-12T06:42:45.347Z,3.60
2023-05-12T06:45:12.350Z,2.90
2023-05-12T06:47:39.624Z,2.80
2023-05-12T06:50:07.686Z,3.33
2023-05-12T06:52:34.479Z,3.07
2023-05-12T06:55:00.579Z,2.80
2023-05-12T06:57:26.661Z,3.03
2023-05-12T06:59:52.741Z,3.20
2023-05-12T07:02:19.134Z,2.47
2023-05-12T07:04:45.213Z,3.20
2023-05-12T07:07:11.276Z,2.63
2023-05-12T07:09:39.837Z,3.03
2023-05-12T07:12:06.497Z,2.60
2023-05-12T07:14:32.580Z,2.60
2023-05-12T07:16:58.616Z,2.60
2023-05-12T07:19:24.766Z,2.70
2023-05-12T07:21:50.828Z,3.00
2023-05-12T07:24:16.940Z,3.03
2023-05-12T07:26:43.861Z,3.13
2023-05-12T07:29:12.067Z,3.23
2023-05-12T07:31:40.013Z,2.80
2023-05-12T07:34:06.579Z,3.23
2023-05-12T07:36:33.022Z,2.90
2023-05-12T07:38:59.134Z,2.80
2023-05-12T07:41:25.487Z,3.03
2023-05-12T07:43:51.549Z,2.33
2023-05-12T07:46:17.578Z,3.17
2023-05-12T07:48:43.638Z,2.90
2023-05-12T07:51:09.885Z,2.40
2023-05-12T07:53:36.135Z,2.77
2023-05-12T07:56:02.360Z,2.40
2023-05-12T07:58:28.531Z,2.57
2023-05-12T08:00:54.744Z,2.53
2023-05-12T08:03:21.012Z,2.60
2023-05-12T08:05:47.184Z,2.30
2023-05-12T08:08:15.950Z,2.53
2023-05-12T08:10:43.288Z,3.20
2023-05-12T08:13:09.421Z,2.70
2023-05-12T08:15:35.577Z,2.70
2023-05-12T08:18:01.877Z,2.73
2023-05-12T08:20:28.053Z,2.50
2023-05-12T08:22:54.376Z,2.40
2023-05-12T08:25:20.793Z,2.30
2023-05-12T08:27:47.092Z,2.70
2023-05-12T08:30:13.420Z,2.80
2023-05-12T08:32:39.704Z,2.73
2023-05-12T08:35:05.888Z,2.40
2023-05-12T08:37:34.345Z,2.47
2023-05-12T08:40:01.026Z,2.87
2023-05-12T08:42:39.057Z,3.00
2023-05-12T08:45:06.795Z,2.47
2023-05-12T08:47:33.649Z,2.70
2023-05-12T08:50:01.791Z,3.00
2023-05-12T08:52:34.799Z,2.90
2023-05-12T08:55:03.269Z,2.50
2023-05-12T08:57:30.545Z,2.93
2023-05-12T08:59:58.635Z,2.97
2023-05-12T09:02:25.341Z,2.63
2023-05-12T09:04:52.149Z,2.60
2023-05-12T09:07:18.989Z,2.80
2023-05-12T09:09:47.062Z,2.60
2023-05-12T09:12:16.829Z,3.20
2023-05-12T09:14:45.176Z,3.10
2023-05-12T09:17:11.965Z,2.93
2023-05-12T09:19:38.104Z,2.90
2023-05-12T09:22:04.326Z,2.83
2023-05-12T09:24:37.971Z,3.23
2023-05-12T09:27:04.518Z,2.93
2023-05-12T09:29:34.455Z,2.77
2023-05-12T09:32:06.079Z,3.13
2023-05-12T09:34:37.688Z,2.70
2023-05-12T09:37:05.827Z,3.07
2023-05-12T09:39:32.567Z,2.93
2023-05-12T09:41:58.781Z,3.00
2023-05-12T09:44:25.521Z,2.67
2023-05-12T09:46:52.528Z,3.00
2023-05-12T09:49:19.889Z,2.60
2023-05-12T09:51:46.222Z,3.20
2023-05-12T09:54:13.250Z,2.90
2023-05-12T09:56:40.211Z,2.70
2023-05-12T09:59:06.574Z,2.23
2023-05-12T10:01:33.954Z,2.70
2023-05-12T10:04:00.401Z,2.43
2023-05-12T10:06:33.063Z,2.90
2023-05-12T10:09:15.080Z,2.60
2023-05-12T10:11:42.228Z,2.23
2023-05-12T10:14:09.208Z,3.10
2023-05-12T10:16:35.804Z,2.87
2023-05-12T10:19:03.668Z,3.20
2023-05-12T10:21:30.001Z,3.30
2023-05-12T10:23:56.342Z,3.03
2023-05-12T10:26:22.785Z,3.50
2023-05-12T10:28:49.829Z,3.67
2023-05-12T10:31:16.254Z,3.93
2023-05-12T10:33:42.371Z,3.23
2023-05-12T10:36:18.738Z,3.70
2023-05-12T10:38:48.964Z,3.90
2023-05-12T10:41:16.420Z,3.67
2023-05-12T10:43:46.568Z,4.07
2023-05-12T10:46:12.579Z,4.00
2023-05-12T10:49:00.280Z,3.73
2023-05-12T10:51:28.101Z,3.50
2023-05-12T10:54:05.355Z,3.80
2023-05-12T10:56:40.335Z,3.97
2023-05-12T10:59:20.931Z,3.80
2023-05-12T11:02:08.142Z,4.17
2023-05-12T11:04:46.020Z,4.10
2023-05-12T11:07:15.537Z,4.17
2023-05-12T11:09:56.653Z,4.10
2023-05-12T11:12:25.960Z,3.77
2023-05-12T11:14:52.140Z,5.13
2023-05-12T11:17:18.255Z,5.17
2023-05-12T11:19:48.851Z,4.77
2023-05-12T11:22:20.710Z,5.07
2023-05-12T11:24:47.920Z,5.13
2023-05-12T11:27:18.453Z,4.53
2023-05-12T11:29:46.461Z,4.80
2023-05-12T11:32:14.967Z,4.40
2023-05-12T11:34:41.111Z,4.97
2023-05-12T11:37:07.341Z,4.60
2023-05-12T11:39:33.493Z,4.80
2023-05-12T11:42:12.043Z,4.43
2023-05-12T11:44:47.070Z,4.43
2023-05-12T11:47:14.372Z,4.40
2023-05-12T11:49:56.356Z,4.93
2023-05-12T11:52:23.627Z,4.03
2023-05-12T11:54:51.358Z,4.57
2023-05-12T11:57:33.613Z,4.10
2023-05-12T12:00:02.308Z,4.00
2023-05-12T12:02:28.652Z,4.10
2023-05-12T12:04:54.908Z,4.37
2023-05-12T12:07:32.032Z,4.03
2023-05-12T12:09:58.814Z,3.83
2023-05-12T12:12:24.994Z,4.03
2023-05-12T12:14:51.195Z,3.83
2023-05-12T12:17:17.297Z,3.50
2023-05-12T12:19:43.432Z,3.37
2023-05-12T12:22:09.593Z,3.40
2023-05-12T12:24:35.870Z,3.80
2023-05-12T12:27:01.946Z,3.50
2023-05-12T12:29:28.135Z,3.47
2023-05-12T12:31:54.203Z,3.70
2023-05-12T12:34:20.252Z,3.50
2023-05-12T12:36:47.355Z,3.70
2023-05-12T12:39:13.923Z,3.83
2023-05-12T12:41:40.362Z,3.73
2023-05-12T12:44:06.594Z,3.40
2023-05-12T12:46:32.777Z,3.60
2023-05-12T12:48:58.954Z,3.83
2023-05-12T12:51:32.613Z,3.50
2023-05-12T12:54:04.839Z,3.33
2023-05-12T12:56:30.963Z,3.40
2023-05-12T12:58:57.008Z,4.00
2023-05-12T13:01:23.394Z,3.90
2023-05-12T13:03:49.461Z,3.23
2023-05-12T13:06:15.572Z,3.50
2023-05-12T13:08:42.325Z,3.63
2023-05-12T13:11:08.545Z,2.93
2023-05-12T13:13:36.240Z,3.30
2023-05-12T13:16:02.303Z,3.53
2023-05-12T13:18:28.404Z,3.80
2023-05-12T13:20:54.529Z,3.90
2023-05-12T13:23:20.807Z,3.40
2023-05-12T13:25:48.136Z,3.87
2023-05-12T13:28:14.196Z,3.63
2023-05-12T13:30:40.347Z,3.60
2023-05-12T13:33:06.686Z,4.10
2023-05-12T13:35:32.895Z,3.77
2023-05-12T13:37:59.019Z,3.90
2023-05-12T13:40:25.133Z,3.63
2023-05-12T13:42:51.254Z,3.67
2023-05-12T13:45:19.447Z,3.73
2023-05-12T13:47:45.784Z,3.70
2023-05-12T13:50:11.907Z,4.13
2023-05-12T13:52:38.026Z,3.77
2023-05-12T13:55:04.517Z,3.10
2023-05-12T13:57:30.588Z,3.57
2023-05-12T13:59:57.815Z,3.77
2023-05-12T14:02:24.489Z,3.70
2023-05-12T14:04:50.936Z,3.10
2023-05-12T14:07:18.588Z,3.57
2023-05-12T14:09:44.902Z,3.40
2023-05-12T14:12:11.251Z,4.00
2023-05-12T14:14:37.381Z,3.50
2023-05-12T14:17:03.592Z,3.10
2023-05-12T14:19:29.971Z,3.20
2023-05-12T14:21:56.029Z,3.70
2023-05-12T14:24:22.108Z,3.20
2023-05-12T14:26:48.565Z,3.03
2023-05-12T14:29:14.651Z,2.80
2023-05-12T14:31:40.790Z,2.83
2023-05-12T14:34:08.469Z,3.07
2023-05-12T14:36:34.612Z,2.80
2023-05-12T14:39:00.675Z,2.90
2023-05-12T14:41:26.782Z,3.07
2023-05-12T14:43:52.862Z,3.50
2023-05-12T14:46:18.988Z,2.83
2023-05-12T14:48:45.198Z,3.27
2023-05-12T14:51:11.298Z,3.13
2023-05-12T14:53:37.382Z,3.00
2023-05-12T14:56:03.659Z,3.20
2023-05-12T14:58:30.169Z,3.10
2023-05-12T15:00:56.348Z,3.10
2023-05-12T15:03:23.002Z,2.67
2023-05-12T15:06:04.891Z,3.50
2023-05-12T15:08:32.297Z,3.30
2023-05-12T15:10:58.396Z,3.10
2023-05-12T15:13:24.478Z,3.70
2023-05-12T15:15:51.883Z,3.27
2023-05-12T15:18:20.260Z,2.87
2023-05-12T15:20:46.386Z,3.20
2023-05-12T15:23:12.522Z,3.10
2023-05-12T15:25:39.893Z,3.43
2023-05-12T15:28:06.787Z,3.60
2023-05-12T15:30:34.214Z,2.90
2023-05-12T15:33:03.264Z,3.20
2023-05-12T15:35:29.805Z,3.43
2023-05-12T15:37:55.873Z,2.80
2023-05-12T15:40:22.091Z,3.60
2023-05-12T15:42:48.814Z,3.40
2023-05-12T15:45:14.997Z,3.50
2023-05-12T15:47:41.203Z,3.03
2023-05-12T15:50:09.602Z,3.30
2023-05-12T15:52:35.687Z,3.37
2023-05-12T15:55:01.794Z,3.00
2023-05-12T15:57:27.855Z,3.20
2023-05-12T15:59:58.103Z,3.00
2023-05-12T16:02:24.469Z,3.20
2023-05-12T16:04:50.640Z,3.37
2023-05-12T16:07:16.823Z,3.20
2023-05-12T16:09:42.888Z,3.40
2023-05-12T16:12:10.723Z,2.90
2023-05-12T16:14:36.872Z,2.90
2023-05-12T16:17:05.672Z,2.90
2023-05-12T16:19:31.791Z,2.90
2023-05-12T16:21:58.755Z,2.77
2023-05-12T16:24:27.694Z,3.00
2023-05-12T16:26:55.150Z,2.70
2023-05-12T16:29:21.228Z,8.10
2023-05-12T16:31:47.350Z,2.83
2023-05-12T16:34:13.425Z,2.93
2023-05-12T16:36:39.584Z,3.20
2023-05-12T16:39:06.860Z,3.53
2023-05-12T16:41:33.047Z,2.90
2023-05-12T16:44:00.162Z,3.17
2023-05-12T16:46:26.398Z,3.40
2023-05-12T16:48:52.508Z,3.30
2023-05-12T16:51:18.602Z,2.83
2023-05-12T16:53:44.671Z,3.07
2023-05-12T16:56:10.950Z,3.03
2023-05-12T16:58:37.135Z,3.37
2023-05-12T17:01:04.072Z,3.20
2023-05-12T17:03:30.886Z,2.47
2023-05-12T17:05:57.040Z,3.40
2023-05-12T17:08:23.936Z,2.70
2023-05-12T17:10:50.948Z,3.10
2023-05-12T17:13:17.053Z,3.10
2023-05-12T17:15:43.375Z,2.87
2023-05-12T17:18:09.595Z,2.60
2023-05-12T17:20:35.754Z,3.00
2023-05-12T17:23:01.907Z,2.90
2023-05-12T17:25:28.550Z,2.90
2023-05-12T17:27:55.832Z,3.07
2023-05-12T17:30:22.121Z,3.10
2023-05-12T17:32:48.277Z,2.77
2023-05-12T17:35:14.426Z,3.33
2023-05-12T17:37:40.821Z,3.07
2023-05-12T17:40:07.532Z,3.23
2023-05-12T17:42:34.472Z,3.10
2023-05-12T17:45:01.252Z,3.67
2023-05-12T17:47:27.467Z,2.90
2023-05-12T17:49:54.227Z,3.70
2023-05-12T17:52:20.393Z,4.00
2023-05-12T17:54:46.508Z,3.50
2023-05-12T17:57:12.617Z,3.20
2023-05-12T17:59:38.676Z,3.83
2023-05-12T18:02:05.160Z,3.27
2023-05-12T18:04:31.393Z,3.30
2023-05-12T18:06:58.731Z,3.60
2023-05-12T18:09:25.034Z,3.10
2023-05-12T18:11:51.876Z,3.40
2023-05-12T18:14:17.945Z,2.83
2023-05-12T18:16:44.042Z,3.40
2023-05-12T18:19:10.707Z,3.23
2023-05-12T18:21:37.368Z,3.43
2023-05-12T18:24:04.094Z,3.30
2023-05-12T18:26:30.193Z,3.33
2023-05-12T18:28:56.557Z,3.17
2023-05-12T18:31:22.719Z,3.50
2023-05-12T18:33:49.423Z,3.40
2023-05-12T18:36:15.923Z,3.60
2023-05-12T18:38:42.537Z,3.50
2023-05-12T18:41:08.770Z,3.63
2023-05-12T18:43:35.482Z,3.40
2023-05-12T18:46:02.121Z,3.00
2023-05-12T18:48:28.354Z,4.07
2023-05-12T18:50:55.331Z,4.00
2023-05-12T18:53:21.869Z,3.90
2023-05-12T18:55:49.069Z,4.40
2023-05-12T18:58:18.084Z,4.10
2023-05-12T19:00:44.386Z,4.00
2023-05-12T19:03:10.624Z,4.00
2023-05-12T19:05:37.153Z,4.07
2023-05-12T19:08:03.484Z,5.20
2023-05-12T19:10:30.034Z,6.77
2023-05-12T19:12:56.221Z,4.47
2023-05-12T19:15:22.623Z,4.40
2023-05-12T19:17:49.389Z,4.50
2023-05-12T19:20:15.625Z,4.83
2023-05-12T19:22:41.827Z,5.47
2023-05-12T19:25:08.732Z,5.50
2023-05-12T19:27:34.828Z,4.93
2023-05-12T19:30:04.514Z,4.30
2023-05-12T19:32:31.750Z,4.17
2023-05-12T19:34:59.432Z,3.93
2023-05-12T19:37:26.604Z,3.63
2023-05-12T19:39:53.118Z,3.83
2023-05-12T19:42:19.279Z,3.80
2023-05-12T19:44:45.324Z,4.23
2023-05-12T19:47:11.934Z,4.23
2023-05-12T19:49:38.251Z,3.77
2023-05-12T19:52:05.380Z,4.70
2023-05-12T19:54:31.514Z,4.47
2023-05-12T19:56:57.850Z,4.70
2023-05-12T19:59:24.110Z,4.33
2023-05-12T20:01:50.643Z,5.20
2023-05-12T20:04:16.853Z,4.00
2023-05-12T20:06:43.033Z,5.10
2023-05-12T20:09:09.637Z,5.23
2023-05-12T20:11:35.849Z,4.50
2023-05-12T20:14:01.955Z,4.33
2023-05-12T20:16:28.911Z,4.57
2023-05-12T20:18:55.319Z,4.00
2023-05-12T20:21:21.465Z,4.10
2023-05-12T20:23:47.550Z,4.77
2023-05-12T20:26:13.707Z,5.80
2023-05-12T20:28:40.395Z,4.60
2023-05-12T20:31:06.672Z,5.33
2023-05-12T20:33:32.974Z,4.10
2023-05-12T20:35:59.248Z,3.77
2023-05-12T20:38:26.031Z,3.87
2023-05-12T20:40:52.246Z,4.60
2023-05-12T20:43:18.376Z,4.43
2023-05-12T20:45:44.496Z,4.37
2023-05-12T20:48:10.718Z,4.23
2023-05-12T20:50:36.867Z,4.30
2023-05-12T20:53:03.918Z,4.60
2023-05-12T20:55:32.292Z,4.53
2023-05-12T20:57:58.356Z,4.30
2023-05-12T21:00:24.434Z,4.07
2023-05-12T21:02:51.523Z,4.60
2023-05-12T21:05:18.548Z,4.57
2023-05-12T21:07:44.751Z,4.63
2023-05-12T21:10:10.834Z,4.70
2023-05-12T21:12:37.875Z,5.03
2023-05-12T21:15:04.650Z,4.60
2023-05-12T21:17:30.726Z,4.90
2023-05-12T21:19:56.862Z,5.00
2023-05-12T21:22:22.934Z,4.93
2023-05-12T21:24:51.065Z,4.77
2023-05-12T21:27:17.893Z,4.90
2023-05-12T21:29:43.946Z,4.53
2023-05-12T21:32:10.522Z,13.40
2023-05-12T21:34:36.737Z,12.40
2023-05-12T21:37:02.909Z,5.40
2023-05-12T21:39:29.049Z,6.13
2023-05-12T21:41:55.139Z,5.60
2023-05-12T21:44:21.197Z,5.10
2023-05-12T21:46:47.356Z,5.60
2023-05-12T21:49:13.487Z,5.27
2023-05-12T21:51:39.550Z,5.50
2023-05-12T21:54:05.667Z,5.90
2023-05-12T21:56:31.832Z,4.63
2023-05-12T21:58:57.898Z,4.63
2023-05-12T22:01:24.083Z,4.73
2023-05-12T22:03:50.650Z,4.73
2023-05-12T22:06:17.176Z,4.30
2023-05-12T22:08:43.352Z,4.77
2023-05-12T22:11:10.505Z,5.13
2023-05-12T22:13:36.735Z,5.30
2023-05-12T22:16:03.211Z,4.93
2023-05-12T22:18:29.325Z,4.90
2023-05-12T22:20:55.443Z,4.23
2023-05-12T22:23:21.593Z,4.43
2023-05-12T22:25:47.704Z,4.40
2023-05-12T22:28:13.823Z,4.30
2023-05-12T22:30:41.198Z,4.03
2023-05-12T22:33:07.352Z,5.07
2023-05-12T22:35:33.480Z,4.83
2023-05-12T22:37:59.671Z,4.63
2023-05-12T22:40:26.441Z,4.63
2023-05-12T22:42:52.570Z,4.37
2023-05-12T22:45:18.725Z,3.80
2023-05-12T22:47:44.981Z,4.40
2023-05-12T22:50:11.418Z,4.73
2023-05-12T22:52:37.563Z,4.73
2023-05-12T22:55:04.088Z,4.80
2023-05-12T22:57:30.328Z,5.10
2023-05-12T22:59:56.418Z,4.77
2023-05-12T23:02:22.525Z,5.00
2023-05-12T23:04:48.652Z,4.97
2023-05-12T23:07:15.150Z,5.10
2023-05-12T23:09:41.267Z,4.60
2023-05-12T23:12:07.572Z,4.13
2023-05-12T23:14:33.679Z,4.80
2023-05-12T23:16:59.804Z,4.43
2023-05-12T23:19:25.937Z,5.27
2023-05-12T23:21:52.023Z,5.10
2023-05-12T23:24:18.338Z,4.77
2023-05-12T23:26:44.809Z,4.33
2023-05-12T23:29:10.963Z,4.50
2023-05-12T23:31:37.142Z,5.43
2023-05-12T23:34:03.219Z,4.43
2023-05-12T23:36:30.676Z,4.20
2023-05-12T23:38:56.805Z,4.20
2023-05-12T23:41:22.940Z,4.10
2023-05-12T23:43:49.036Z,4.20
2023-05-12T23:46:15.137Z,4.43
2023-05-12T23:48:41.536Z,4.50
2023-05-12T23:51:07.615Z,4.13
2023-05-12T23:53:33.796Z,3.97
2023-05-12T23:56:01.199Z,4.67
2023-05-12T23:58:27.261Z,4.03
